sensor_id;sensor_type;location;lat;lon;timestamp;temperature;humidity
49489;SHT31;35382;51.484;11.476;2024-03-08T00:02:04;-1.27;90.97
49489;SHT31;35382;51.484;11.476;2024-03-08T00:04:29;-1.27;90.39
49489;SHT31;35382;51.484;11.476;2024-03-08T00:06:54;-1.56;91.05
49489;SHT31;35382;51.484;11.476;2024-03-08T00:09:20;-1.68;91.27
49489;SHT31;35382;51.484;11.476;2024-03-08T00:11:45;-1.62;91.55
49489;SHT31;35382;51.484;11.476;2024-03-08T00:14:11;-1.64;91.52
49489;SHT31;35382;51.484;11.476;2024-03-08T00:16:36;-1.70;91.71
49489;SHT31;35382;51.484;11.476;2024-03-08T00:19:01;-1.44;91.69
49489;SHT31;35382;51.484;11.476;2024-03-08T00:21:27;-1.57;91.35
49489;SHT31;35382;51.484;11.476;2024-03-08T00:23:53;-1.62;91.76
49489;SHT31;35382;51.484;11.476;2024-03-08T00:26:18;-1.64;91.95
49489;SHT31;35382;51.484;11.476;2024-03-08T00:28:43;-1.68;92.17
49489;SHT31;35382;51.484;11.476;2024-03-08T00:31:11;-1.66;92.32
49489;SHT31;35382;51.484;11.476;2024-03-08T00:33:36;-1.63;92.44
49489;SHT31;35382;51.484;11.476;2024-03-08T00:36:01;-1.56;92.50
49489;SHT31;35382;51.484;11.476;2024-03-08T00:38:27;-1.53;92.46
49489;SHT31;35382;51.484;11.476;2024-03-08T00:40:52;-1.43;92.19
49489;SHT31;35382;51.484;11.476;2024-03-08T00:43:18;-1.44;91.99
49489;SHT31;35382;51.484;11.476;2024-03-08T00:45:43;-1.42;91.85
49489;SHT31;35382;51.484;11.476;2024-03-08T00:48:08;-1.33;91.77
49489;SHT31;35382;51.484;11.476;2024-03-08T00:50:34;-1.29;91.80
49489;SHT31;35382;51.484;11.476;2024-03-08T00:52:59;-1.27;91.54
49489;SHT31;35382;51.484;11.476;2024-03-08T00:55:25;-1.16;91.65
49489;SHT31;35382;51.484;11.476;2024-03-08T00:57:50;-1.07;90.84
49489;SHT31;35382;51.484;11.476;2024-03-08T01:00:16;-1.06;90.79
49489;SHT31;35382;51.484;11.476;2024-03-08T01:02:41;-1.15;91.03
49489;SHT31;35382;51.484;11.476;2024-03-08T01:05:07;-1.17;91.00
49489;SHT31;35382;51.484;11.476;2024-03-08T01:07:36;-1.25;91.05
49489;SHT31;35382;51.484;11.476;2024-03-08T01:10:03;-1.25;91.17
49489;SHT31;35382;51.484;11.476;2024-03-08T01:12:28;-1.27;91.27
49489;SHT31;35382;51.484;11.476;2024-03-08T01:14:54;-1.38;91.40
49489;SHT31;35382;51.484;11.476;2024-03-08T01:17:19;-1.38;91.53
49489;SHT31;35382;51.484;11.476;2024-03-08T01:19:44;-1.49;91.50
49489;SHT31;35382;51.484;11.476;2024-03-08T01:22:10;-1.44;91.50
49489;SHT31;35382;51.484;11.476;2024-03-08T01:24:36;-1.50;91.41
49489;SHT31;35382;51.484;11.476;2024-03-08T01:27:01;-1.44;91.55
49489;SHT31;35382;51.484;11.476;2024-03-08T01:29:27;-1.47;91.57
49489;SHT31;35382;51.484;11.476;2024-03-08T01:31:52;-1.50;91.72
49489;SHT31;35382;51.484;11.476;2024-03-08T01:34:18;-1.57;91.97
49489;SHT31;35382;51.484;11.476;2024-03-08T01:36:43;-1.54;91.90
49489;SHT31;35382;51.484;11.476;2024-03-08T01:39:08;-1.54;91.90
49489;SHT31;35382;51.484;11.476;2024-03-08T01:41:34;-1.51;91.90
49489;SHT31;35382;51.484;11.476;2024-03-08T01:43:59;-1.53;91.65
49489;SHT31;35382;51.484;11.476;2024-03-08T01:46:25;-1.56;91.61
49489;SHT31;35382;51.484;11.476;2024-03-08T01:48:50;-1.59;91.63
49489;SHT31;35382;51.484;11.476;2024-03-08T01:51:16;-1.62;91.53
49489;SHT31;35382;51.484;11.476;2024-03-08T01:53:42;-1.60;91.53
49489;SHT31;35382;51.484;11.476;2024-03-08T01:56:08;-1.56;91.47
49489;SHT31;35382;51.484;11.476;2024-03-08T01:58:34;-1.68;91.55
49489;SHT31;35382;51.484;11.476;2024-03-08T02:01:00;-1.71;91.76
49489;SHT31;35382;51.484;11.476;2024-03-08T02:03:26;-1.64;91.83
49489;SHT31;35382;51.484;11.476;2024-03-08T02:05:52;-1.73;91.81
49489;SHT31;35382;51.484;11.476;2024-03-08T02:08:19;-1.87;91.65
49489;SHT31;35382;51.484;11.476;2024-03-08T02:10:44;-2.04;91.74
49489;SHT31;35382;51.484;11.476;2024-03-08T02:13:11;-2.02;92.00
49489;SHT31;35382;51.484;11.476;2024-03-08T02:15:56;-2.04;92.31
49489;SHT31;35382;51.484;11.476;2024-03-08T02:18:23;-2.18;92.41
49489;SHT31;35382;51.484;11.476;2024-03-08T02:20:52;-2.22;92.66
49489;SHT31;35382;51.484;11.476;2024-03-08T02:23:19;-2.27;92.72
49489;SHT31;35382;51.484;11.476;2024-03-08T02:25:44;-2.24;92.75
49489;SHT31;35382;51.484;11.476;2024-03-08T02:28:13;-2.15;92.73
49489;SHT31;35382;51.484;11.476;2024-03-08T02:30:39;-2.22;92.94
49489;SHT31;35382;51.484;11.476;2024-03-08T02:33:05;-2.21;92.75
49489;SHT31;35382;51.484;11.476;2024-03-08T02:35:31;-2.18;92.63
49489;SHT31;35382;51.484;11.476;2024-03-08T02:37:56;-2.14;92.38
49489;SHT31;35382;51.484;11.476;2024-03-08T02:40:22;-2.18;91.92
49489;SHT31;35382;51.484;11.476;2024-03-08T02:42:47;-2.15;92.04
49489;SHT31;35382;51.484;11.476;2024-03-08T02:45:12;-2.15;92.13
49489;SHT31;35382;51.484;11.476;2024-03-08T02:47:38;-2.19;91.72
49489;SHT31;35382;51.484;11.476;2024-03-08T02:50:03;-2.40;92.09
49489;SHT31;35382;51.484;11.476;2024-03-08T02:52:29;-2.34;92.26
49489;SHT31;35382;51.484;11.476;2024-03-08T02:54:54;-2.28;92.16
49489;SHT31;35382;51.484;11.476;2024-03-08T02:57:20;-2.32;92.14
49489;SHT31;35382;51.484;11.476;2024-03-08T02:59:45;-2.35;92.38
49489;SHT31;35382;51.484;11.476;2024-03-08T03:02:10;-2.28;92.28
49489;SHT31;35382;51.484;11.476;2024-03-08T03:04:36;-2.31;92.71
49489;SHT31;35382;51.484;11.476;2024-03-08T03:07:01;-2.32;92.89
49489;SHT31;35382;51.484;11.476;2024-03-08T03:09:26;-2.24;92.59
49489;SHT31;35382;51.484;11.476;2024-03-08T03:11:52;-2.12;92.65
49489;SHT31;35382;51.484;11.476;2024-03-08T03:14:17;-2.27;92.67
49489;SHT31;35382;51.484;11.476;2024-03-08T03:16:42;-2.27;92.86
49489;SHT31;35382;51.484;11.476;2024-03-08T03:19:08;-2.22;92.93
49489;SHT31;35382;51.484;11.476;2024-03-08T03:21:33;-2.21;92.82
49489;SHT31;35382;51.484;11.476;2024-03-08T03:23:58;-2.22;92.92
49489;SHT31;35382;51.484;11.476;2024-03-08T03:26:24;-2.17;92.81
49489;SHT31;35382;51.484;11.476;2024-03-08T03:28:49;-2.21;92.71
49489;SHT31;35382;51.484;11.476;2024-03-08T03:31:14;-2.24;92.78
49489;SHT31;35382;51.484;11.476;2024-03-08T03:33:40;-2.25;92.73
49489;SHT31;35382;51.484;11.476;2024-03-08T03:36:06;-2.24;92.77
49489;SHT31;35382;51.484;11.476;2024-03-08T03:38:31;-2.17;92.61
49489;SHT31;35382;51.484;11.476;2024-03-08T03:40:56;-2.24;92.82
49489;SHT31;35382;51.484;11.476;2024-03-08T03:43:22;-2.19;92.85
49489;SHT31;35382;51.484;11.476;2024-03-08T03:45:47;-2.19;92.87
49489;SHT31;35382;51.484;11.476;2024-03-08T03:48:12;-2.31;92.95
49489;SHT31;35382;51.484;11.476;2024-03-08T03:50:38;-2.34;92.99
49489;SHT31;35382;51.484;11.476;2024-03-08T03:53:04;-2.25;92.79
49489;SHT31;35382;51.484;11.476;2024-03-08T03:55:29;-2.37;93.04
49489;SHT31;35382;51.484;11.476;2024-03-08T03:57:55;-2.35;93.17
49489;SHT31;35382;51.484;11.476;2024-03-08T04:00:20;-2.40;93.27
49489;SHT31;35382;51.484;11.476;2024-03-08T04:02:46;-2.38;93.16
49489;SHT31;35382;51.484;11.476;2024-03-08T04:05:11;-2.25;93.19
49489;SHT31;35382;51.484;11.476;2024-03-08T04:07:38;-2.49;93.19
49489;SHT31;35382;51.484;11.476;2024-03-08T04:10:06;-2.53;93.15
49489;SHT31;35382;51.484;11.476;2024-03-08T04:12:34;-2.46;92.99
49489;SHT31;35382;51.484;11.476;2024-03-08T04:15:00;-2.59;93.63
49489;SHT31;35382;51.484;11.476;2024-03-08T04:17:26;-2.63;93.62
49489;SHT31;35382;51.484;11.476;2024-03-08T04:19:52;-2.61;93.54
49489;SHT31;35382;51.484;11.476;2024-03-08T04:22:18;-2.61;93.66
49489;SHT31;35382;51.484;11.476;2024-03-08T04:24:47;-2.77;93.77
49489;SHT31;35382;51.484;11.476;2024-03-08T04:27:13;-2.69;94.11
49489;SHT31;35382;51.484;11.476;2024-03-08T04:29:38;-2.72;94.05
49489;SHT31;35382;51.484;11.476;2024-03-08T04:32:04;-2.63;94.08
49489;SHT31;35382;51.484;11.476;2024-03-08T04:34:31;-2.65;93.86
49489;SHT31;35382;51.484;11.476;2024-03-08T04:37:00;-2.68;93.98
49489;SHT31;35382;51.484;11.476;2024-03-08T04:39:25;-2.72;94.10
49489;SHT31;35382;51.484;11.476;2024-03-08T04:41:51;-2.68;94.00
49489;SHT31;35382;51.484;11.476;2024-03-08T04:44:16;-2.70;93.81
49489;SHT31;35382;51.484;11.476;2024-03-08T04:46:42;-2.79;93.74
49489;SHT31;35382;51.484;11.476;2024-03-08T04:49:07;-2.79;93.70
49489;SHT31;35382;51.484;11.476;2024-03-08T04:51:33;-2.87;94.10
49489;SHT31;35382;51.484;11.476;2024-03-08T04:53:58;-3.03;94.23
49489;SHT31;35382;51.484;11.476;2024-03-08T04:56:23;-2.90;94.33
49489;SHT31;35382;51.484;11.476;2024-03-08T04:58:49;-2.87;94.28
49489;SHT31;35382;51.484;11.476;2024-03-08T05:01:14;-2.83;94.35
49489;SHT31;35382;51.484;11.476;2024-03-08T05:03:40;-2.85;94.31
49489;SHT31;35382;51.484;11.476;2024-03-08T05:06:05;-2.92;94.33
49489;SHT31;35382;51.484;11.476;2024-03-08T05:08:30;-2.87;94.47
49489;SHT31;35382;51.484;11.476;2024-03-08T05:10:56;-2.87;94.60
49489;SHT31;35382;51.484;11.476;2024-03-08T05:13:22;-2.89;94.69
49489;SHT31;35382;51.484;11.476;2024-03-08T05:15:50;-2.85;94.57
49489;SHT31;35382;51.484;11.476;2024-03-08T05:18:16;-2.96;94.60
49489;SHT31;35382;51.484;11.476;2024-03-08T05:20:41;-2.83;94.76
49489;SHT31;35382;51.484;11.476;2024-03-08T05:23:07;-2.83;94.50
49489;SHT31;35382;51.484;11.476;2024-03-08T05:25:32;-2.75;94.52
49489;SHT31;35382;51.484;11.476;2024-03-08T05:27:58;-2.49;94.10
49489;SHT31;35382;51.484;11.476;2024-03-08T05:30:23;-2.53;94.03
49489;SHT31;35382;51.484;11.476;2024-03-08T05:32:48;-2.62;93.93
49489;SHT31;35382;51.484;11.476;2024-03-08T05:35:14;-2.59;94.34
49489;SHT31;35382;51.484;11.476;2024-03-08T05:37:39;-2.58;94.32
49489;SHT31;35382;51.484;11.476;2024-03-08T05:40:06;-2.59;94.24
49489;SHT31;35382;51.484;11.476;2024-03-08T05:42:31;-2.38;94.06
49489;SHT31;35382;51.484;11.476;2024-03-08T05:44:56;-2.35;93.77
49489;SHT31;35382;51.484;11.476;2024-03-08T05:47:22;-2.37;93.80
49489;SHT31;35382;51.484;11.476;2024-03-08T05:49:47;-2.31;93.87
49489;SHT31;35382;51.484;11.476;2024-03-08T05:52:12;-2.30;93.54
49489;SHT31;35382;51.484;11.476;2024-03-08T05:54:38;-2.32;93.81
49489;SHT31;35382;51.484;11.476;2024-03-08T05:57:03;-2.31;93.71
49489;SHT31;35382;51.484;11.476;2024-03-08T05:59:29;-2.18;93.81
49489;SHT31;35382;51.484;11.476;2024-03-08T06:01:54;-2.14;93.60
49489;SHT31;35382;51.484;11.476;2024-03-08T06:04:19;-2.08;92.76
49489;SHT31;35382;51.484;11.476;2024-03-08T06:06:45;-2.02;92.86
49489;SHT31;35382;51.484;11.476;2024-03-08T06:09:10;-2.09;92.90
49489;SHT31;35382;51.484;11.476;2024-03-08T06:11:35;-2.17;93.03
49489;SHT31;35382;51.484;11.476;2024-03-08T06:14:00;-2.14;93.15
49489;SHT31;35382;51.484;11.476;2024-03-08T06:16:26;-1.94;92.37
49489;SHT31;35382;51.484;11.476;2024-03-08T06:18:52;-1.87;92.56
49489;SHT31;35382;51.484;11.476;2024-03-08T06:21:17;-1.90;92.40
49489;SHT31;35382;51.484;11.476;2024-03-08T06:23:42;-1.68;91.77
49489;SHT31;35382;51.484;11.476;2024-03-08T06:26:08;-1.64;92.03
49489;SHT31;35382;51.484;11.476;2024-03-08T06:28:34;-1.67;91.87
49489;SHT31;35382;51.484;11.476;2024-03-08T06:30:59;-1.71;91.75
49489;SHT31;35382;51.484;11.476;2024-03-08T06:33:25;-1.68;92.01
49489;SHT31;35382;51.484;11.476;2024-03-08T06:35:50;-1.66;92.16
49489;SHT31;35382;51.484;11.476;2024-03-08T06:38:15;-1.49;92.16
49489;SHT31;35382;51.484;11.476;2024-03-08T06:40:41;-1.56;91.67
49489;SHT31;35382;51.484;11.476;2024-03-08T06:43:06;-1.40;91.46
49489;SHT31;35382;51.484;11.476;2024-03-08T06:45:32;-1.40;91.86
49489;SHT31;35382;51.484;11.476;2024-03-08T06:47:57;-1.33;91.57
49489;SHT31;35382;51.484;11.476;2024-03-08T06:50:22;-1.35;91.54
49489;SHT31;35382;51.484;11.476;2024-03-08T06:52:48;-1.26;91.53
49489;SHT31;35382;51.484;11.476;2024-03-08T06:55:13;-1.33;91.69
49489;SHT31;35382;51.484;11.476;2024-03-08T06:57:39;-1.29;91.64
49489;SHT31;35382;51.484;11.476;2024-03-08T07:00:06;-1.29;91.63
49489;SHT31;35382;51.484;11.476;2024-03-08T07:02:34;-1.02;91.53
49489;SHT31;35382;51.484;11.476;2024-03-08T07:04:59;-1.03;91.13
49489;SHT31;35382;51.484;11.476;2024-03-08T07:07:24;-0.96;90.80
49489;SHT31;35382;51.484;11.476;2024-03-08T07:09:50;-0.97;90.82
49489;SHT31;35382;51.484;11.476;2024-03-08T07:12:15;-0.85;90.73
49489;SHT31;35382;51.484;11.476;2024-03-08T07:14:41;-0.91;90.59
49489;SHT31;35382;51.484;11.476;2024-03-08T07:17:07;-0.76;90.61
49489;SHT31;35382;51.484;11.476;2024-03-08T07:19:32;-0.61;89.83
49489;SHT31;35382;51.484;11.476;2024-03-08T07:21:58;-0.55;89.90
49489;SHT31;35382;51.484;11.476;2024-03-08T07:24:23;-0.39;89.49
49489;SHT31;35382;51.484;11.476;2024-03-08T07:26:48;-0.27;89.23
49489;SHT31;35382;51.484;11.476;2024-03-08T07:29:14;-0.18;89.00
49489;SHT31;35382;51.484;11.476;2024-03-08T07:31:39;0.00;88.74
49489;SHT31;35382;51.484;11.476;2024-03-08T07:34:04;0.10;88.29
49489;SHT31;35382;51.484;11.476;2024-03-08T07:36:30;0.36;87.61
49489;SHT31;35382;51.484;11.476;2024-03-08T07:38:55;0.36;87.48
49489;SHT31;35382;51.484;11.476;2024-03-08T07:41:20;0.46;86.97
49489;SHT31;35382;51.484;11.476;2024-03-08T07:43:46;0.61;86.78
49489;SHT31;35382;51.484;11.476;2024-03-08T07:46:11;0.83;85.86
49489;SHT31;35382;51.484;11.476;2024-03-08T07:48:36;0.89;86.02
49489;SHT31;35382;51.484;11.476;2024-03-08T07:51:02;1.04;85.52
49489;SHT31;35382;51.484;11.476;2024-03-08T07:53:27;1.02;85.27
49489;SHT31;35382;51.484;11.476;2024-03-08T07:55:53;1.39;85.24
49489;SHT31;35382;51.484;11.476;2024-03-08T07:58:18;1.62;83.65
49489;SHT31;35382;51.484;11.476;2024-03-08T08:00:43;1.83;83.70
49489;SHT31;35382;51.484;11.476;2024-03-08T08:03:09;2.29;81.69
49489;SHT31;35382;51.484;11.476;2024-03-08T08:05:34;2.41;81.55
49489;SHT31;35382;51.484;11.476;2024-03-08T08:08:00;2.17;80.74
49489;SHT31;35382;51.484;11.476;2024-03-08T08:10:29;2.54;81.00
49489;SHT31;35382;51.484;11.476;2024-03-08T08:12:54;2.51;80.52
49489;SHT31;35382;51.484;11.476;2024-03-08T08:15:20;2.68;80.23
49489;SHT31;35382;51.484;11.476;2024-03-08T08:17:45;2.89;79.88
49489;SHT31;35382;51.484;11.476;2024-03-08T08:20:11;2.89;78.00
49489;SHT31;35382;51.484;11.476;2024-03-08T08:22:38;3.02;78.83
49489;SHT31;35382;51.484;11.476;2024-03-08T08:25:03;3.26;78.30
49489;SHT31;35382;51.484;11.476;2024-03-08T08:27:29;3.36;78.03
49489;SHT31;35382;51.484;11.476;2024-03-08T08:29:54;3.52;77.56
49489;SHT31;35382;51.484;11.476;2024-03-08T08:32:22;3.62;77.48
49489;SHT31;35382;51.484;11.476;2024-03-08T08:34:47;3.72;77.31
49489;SHT31;35382;51.484;11.476;2024-03-08T08:37:13;4.06;76.61
49489;SHT31;35382;51.484;11.476;2024-03-08T08:39:38;4.17;75.45
49489;SHT31;35382;51.484;11.476;2024-03-08T08:42:04;3.86;76.24
49489;SHT31;35382;51.484;11.476;2024-03-08T08:44:29;4.31;75.91
49489;SHT31;35382;51.484;11.476;2024-03-08T08:46:54;4.25;76.15
49489;SHT31;35382;51.484;11.476;2024-03-08T08:49:20;4.17;75.03
49489;SHT31;35382;51.484;11.476;2024-03-08T08:51:52;4.25;74.94
49489;SHT31;35382;51.484;11.476;2024-03-08T08:54:17;4.33;75.36
49489;SHT31;35382;51.484;11.476;2024-03-08T08:56:43;4.21;74.90
49489;SHT31;35382;51.484;11.476;2024-03-08T08:59:09;4.53;74.85
49489;SHT31;35382;51.484;11.476;2024-03-08T09:01:35;4.75;75.81
49489;SHT31;35382;51.484;11.476;2024-03-08T09:04:00;4.99;74.24
49489;SHT31;35382;51.484;11.476;2024-03-08T09:06:26;4.88;74.16
49489;SHT31;35382;51.484;11.476;2024-03-08T09:08:51;4.87;74.58
49489;SHT31;35382;51.484;11.476;2024-03-08T09:11:16;5.04;73.73
49489;SHT31;35382;51.484;11.476;2024-03-08T09:13:44;4.75;74.59
49489;SHT31;35382;51.484;11.476;2024-03-08T09:16:10;4.99;74.28
49489;SHT31;35382;51.484;11.476;2024-03-08T09:18:35;5.04;73.24
49489;SHT31;35382;51.484;11.476;2024-03-08T09:21:00;5.29;74.44
49489;SHT31;35382;51.484;11.476;2024-03-08T09:23:26;5.33;72.86
49489;SHT31;35382;51.484;11.476;2024-03-08T09:25:51;5.74;73.77
49489;SHT31;35382;51.484;11.476;2024-03-08T09:28:17;5.52;72.97
49489;SHT31;35382;51.484;11.476;2024-03-08T09:30:42;5.63;72.59
49489;SHT31;35382;51.484;11.476;2024-03-08T09:33:07;5.90;73.70
49489;SHT31;35382;51.484;11.476;2024-03-08T09:35:33;5.63;73.05
49489;SHT31;35382;51.484;11.476;2024-03-08T09:37:58;5.60;72.99
49489;SHT31;35382;51.484;11.476;2024-03-08T09:40:24;5.67;73.06
49489;SHT31;35382;51.484;11.476;2024-03-08T09:42:49;5.46;72.79
49489;SHT31;35382;51.484;11.476;2024-03-08T09:45:16;5.32;73.14
49489;SHT31;35382;51.484;11.476;2024-03-08T09:47:42;5.29;73.25
49489;SHT31;35382;51.484;11.476;2024-03-08T09:50:09;5.49;73.69
49489;SHT31;35382;51.484;11.476;2024-03-08T09:52:47;5.28;73.48
49489;SHT31;35382;51.484;11.476;2024-03-08T09:55:13;5.35;73.86
49489;SHT31;35382;51.484;11.476;2024-03-08T09:57:39;5.55;73.73
49489;SHT31;35382;51.484;11.476;2024-03-08T10:00:07;5.63;72.52
49489;SHT31;35382;51.484;11.476;2024-03-08T10:02:34;5.94;73.45
49489;SHT31;35382;51.484;11.476;2024-03-08T10:05:01;5.81;72.92
49489;SHT31;35382;51.484;11.476;2024-03-08T10:07:26;5.97;72.86
49489;SHT31;35382;51.484;11.476;2024-03-08T10:09:52;6.40;72.13
49489;SHT31;35382;51.484;11.476;2024-03-08T10:12:17;6.81;72.39
49489;SHT31;35382;51.484;11.476;2024-03-08T10:14:42;6.59;71.01
49489;SHT31;35382;51.484;11.476;2024-03-08T10:17:08;6.58;71.19
49489;SHT31;35382;51.484;11.476;2024-03-08T10:19:34;6.64;71.27
49489;SHT31;35382;51.484;11.476;2024-03-08T10:21:59;6.54;71.11
49489;SHT31;35382;51.484;11.476;2024-03-08T10:24:25;6.71;71.68
49489;SHT31;35382;51.484;11.476;2024-03-08T10:26:58;6.72;70.98
49489;SHT31;35382;51.484;11.476;2024-03-08T10:29:24;6.99;69.89
49489;SHT31;35382;51.484;11.476;2024-03-08T10:31:49;7.23;70.76
49489;SHT31;35382;51.484;11.476;2024-03-08T10:34:14;7.50;70.15
49489;SHT31;35382;51.484;11.476;2024-03-08T10:36:40;6.67;69.79
49489;SHT31;35382;51.484;11.476;2024-03-08T10:39:21;6.99;71.33
49489;SHT31;35382;51.484;11.476;2024-03-08T10:41:52;7.27;70.21
49489;SHT31;35382;51.484;11.476;2024-03-08T10:49:31;6.91;70.42
49489;SHT31;35382;51.484;11.476;2024-03-08T10:51:57;6.77;70.72
49489;SHT31;35382;51.484;11.476;2024-03-08T10:54:25;7.01;71.97
49489;SHT31;35382;51.484;11.476;2024-03-08T10:56:51;7.05;70.39
49489;SHT31;35382;51.484;11.476;2024-03-08T10:59:18;7.12;70.67
49489;SHT31;35382;51.484;11.476;2024-03-08T11:01:44;7.11;71.06
49489;SHT31;35382;51.484;11.476;2024-03-08T11:04:09;7.46;69.68
49489;SHT31;35382;51.484;11.476;2024-03-08T11:09:11;7.22;70.52
49489;SHT31;35382;51.484;11.476;2024-03-08T11:11:52;7.26;69.40
49489;SHT31;35382;51.484;11.476;2024-03-08T11:14:43;7.29;69.77
49489;SHT31;35382;51.484;11.476;2024-03-08T11:17:08;7.45;69.50
49489;SHT31;35382;51.484;11.476;2024-03-08T11:19:34;7.29;68.97
49489;SHT31;35382;51.484;11.476;2024-03-08T11:22:03;7.50;69.77
49489;SHT31;35382;51.484;11.476;2024-03-08T11:24:37;7.86;69.02
49489;SHT31;35382;51.484;11.476;2024-03-08T11:27:03;7.69;68.46
49489;SHT31;35382;51.484;11.476;2024-03-08T11:32:23;7.08;69.21
49489;SHT31;35382;51.484;11.476;2024-03-08T11:34:53;6.99;69.78
49489;SHT31;35382;51.484;11.476;2024-03-08T11:37:19;6.81;71.10
49489;SHT31;35382;51.484;11.476;2024-03-08T11:39:50;6.71;71.37
49489;SHT31;35382;51.484;11.476;2024-03-08T11:42:16;6.74;71.39
49489;SHT31;35382;51.484;11.476;2024-03-08T11:44:41;6.71;71.05
49489;SHT31;35382;51.484;11.476;2024-03-08T11:47:10;6.59;70.80
49489;SHT31;35382;51.484;11.476;2024-03-08T11:49:37;6.79;70.65
49489;SHT31;35382;51.484;11.476;2024-03-08T11:52:02;7.36;70.19
49489;SHT31;35382;51.484;11.476;2024-03-08T11:54:28;7.08;69.51
49489;SHT31;35382;51.484;11.476;2024-03-08T11:56:54;7.16;69.29
49489;SHT31;35382;51.484;11.476;2024-03-08T11:59:19;7.08;69.20
49489;SHT31;35382;51.484;11.476;2024-03-08T12:02:00;7.47;68.85
49489;SHT31;35382;51.484;11.476;2024-03-08T12:04:26;7.53;68.96
49489;SHT31;35382;51.484;11.476;2024-03-08T12:06:51;7.67;68.09
49489;SHT31;35382;51.484;11.476;2024-03-08T12:09:17;8.01;68.16
49489;SHT31;35382;51.484;11.476;2024-03-08T12:11:42;7.95;68.29
49489;SHT31;35382;51.484;11.476;2024-03-08T12:14:08;8.04;68.07
49489;SHT31;35382;51.484;11.476;2024-03-08T12:16:33;8.28;68.31
49489;SHT31;35382;51.484;11.476;2024-03-08T12:18:59;8.00;68.26
49489;SHT31;35382;51.484;11.476;2024-03-08T12:21:26;8.18;68.63
49489;SHT31;35382;51.484;11.476;2024-03-08T12:24:07;8.17;66.74
49489;SHT31;35382;51.484;11.476;2024-03-08T12:26:32;8.58;67.51
49489;SHT31;35382;51.484;11.476;2024-03-08T12:29:17;8.76;67.09
49489;SHT31;35382;51.484;11.476;2024-03-08T12:31:43;7.95;66.92
49489;SHT31;35382;51.484;11.476;2024-03-08T12:34:09;7.98;68.50
49489;SHT31;35382;51.484;11.476;2024-03-08T12:36:34;8.26;67.65
49489;SHT31;35382;51.484;11.476;2024-03-08T12:38:59;8.14;67.20
49489;SHT31;35382;51.484;11.476;2024-03-08T12:41:25;8.34;66.83
49489;SHT31;35382;51.484;11.476;2024-03-08T12:43:50;8.14;67.01
49489;SHT31;35382;51.484;11.476;2024-03-08T12:46:19;8.23;67.03
49489;SHT31;35382;51.484;11.476;2024-03-08T12:48:45;8.57;66.72
49489;SHT31;35382;51.484;11.476;2024-03-08T12:51:11;8.47;65.87
49489;SHT31;35382;51.484;11.476;2024-03-08T12:53:36;8.51;65.83
49489;SHT31;35382;51.484;11.476;2024-03-08T12:56:02;8.20;65.63
49489;SHT31;35382;51.484;11.476;2024-03-08T12:58:27;8.14;67.22
49489;SHT31;35382;51.484;11.476;2024-03-08T13:00:53;8.71;66.75
49489;SHT31;35382;51.484;11.476;2024-03-08T13:03:18;8.57;64.85
49489;SHT31;35382;51.484;11.476;2024-03-08T13:05:43;8.28;65.52
49489;SHT31;35382;51.484;11.476;2024-03-08T13:08:09;8.42;66.58
49489;SHT31;35382;51.484;11.476;2024-03-08T13:10:35;8.73;65.58
49489;SHT31;35382;51.484;11.476;2024-03-08T13:13:00;9.04;65.06
49489;SHT31;35382;51.484;11.476;2024-03-08T13:15:25;8.95;66.17
49489;SHT31;35382;51.484;11.476;2024-03-08T13:17:51;8.68;65.74
49489;SHT31;35382;51.484;11.476;2024-03-08T13:20:16;8.92;65.72
49489;SHT31;35382;51.484;11.476;2024-03-08T13:22:42;8.93;65.41
49489;SHT31;35382;51.484;11.476;2024-03-08T13:25:08;9.02;65.18
49489;SHT31;35382;51.484;11.476;2024-03-08T13:27:33;8.71;65.27
49489;SHT31;35382;51.484;11.476;2024-03-08T13:29:58;8.26;66.66
49489;SHT31;35382;51.484;11.476;2024-03-08T13:32:24;8.41;66.98
49489;SHT31;35382;51.484;11.476;2024-03-08T13:34:49;8.73;67.08
49489;SHT31;35382;51.484;11.476;2024-03-08T13:37:14;8.62;66.61
49489;SHT31;35382;51.484;11.476;2024-03-08T13:39:40;8.93;66.59
49489;SHT31;35382;51.484;11.476;2024-03-08T13:42:06;9.26;65.67
49489;SHT31;35382;51.484;11.476;2024-03-08T13:44:32;8.86;65.14
49489;SHT31;35382;51.484;11.476;2024-03-08T13:46:57;8.86;64.82
49489;SHT31;35382;51.484;11.476;2024-03-08T13:49:22;8.95;65.73
49489;SHT31;35382;51.484;11.476;2024-03-08T13:51:50;9.04;65.32
49489;SHT31;35382;51.484;11.476;2024-03-08T13:54:16;9.19;64.96
49489;SHT31;35382;51.484;11.476;2024-03-08T13:56:41;9.06;64.56
49489;SHT31;35382;51.484;11.476;2024-03-08T13:59:06;8.93;64.53
49489;SHT31;35382;51.484;11.476;2024-03-08T14:01:32;9.09;64.88
49489;SHT31;35382;51.484;11.476;2024-03-08T14:03:57;8.96;65.26
49489;SHT31;35382;51.484;11.476;2024-03-08T14:06:22;9.02;64.83
49489;SHT31;35382;51.484;11.476;2024-03-08T14:08:48;8.95;65.96
49489;SHT31;35382;51.484;11.476;2024-03-08T14:11:13;9.15;65.64
49489;SHT31;35382;51.484;11.476;2024-03-08T14:13:45;9.46;64.50
49489;SHT31;35382;51.484;11.476;2024-03-08T14:16:11;9.35;63.62
49489;SHT31;35382;51.484;11.476;2024-03-08T14:18:36;9.26;64.84
49489;SHT31;35382;51.484;11.476;2024-03-08T14:21:02;9.53;63.77
49489;SHT31;35382;51.484;11.476;2024-03-08T14:23:28;8.99;64.95
49489;SHT31;35382;51.484;11.476;2024-03-08T14:25:53;8.96;65.30
49489;SHT31;35382;51.484;11.476;2024-03-08T14:28:18;9.12;64.77
49489;SHT31;35382;51.484;11.476;2024-03-08T14:30:44;9.36;64.23
49489;SHT31;35382;51.484;11.476;2024-03-08T14:33:09;9.70;63.74
49489;SHT31;35382;51.484;11.476;2024-03-08T14:35:35;9.77;65.10
49489;SHT31;35382;51.484;11.476;2024-03-08T14:38:00;9.49;64.02
49489;SHT31;35382;51.484;11.476;2024-03-08T14:40:29;9.32;65.13
49489;SHT31;35382;51.484;11.476;2024-03-08T14:42:54;9.42;65.41
49489;SHT31;35382;51.484;11.476;2024-03-08T14:45:19;9.90;64.29
49489;SHT31;35382;51.484;11.476;2024-03-08T14:47:46;10.00;63.59
49489;SHT31;35382;51.484;11.476;2024-03-08T14:50:11;9.60;64.62
49489;SHT31;35382;51.484;11.476;2024-03-08T14:52:37;9.16;65.13
49489;SHT31;35382;51.484;11.476;2024-03-08T14:55:02;9.01;65.91
49489;SHT31;35382;51.484;11.476;2024-03-08T14:57:28;9.18;66.01
49489;SHT31;35382;51.484;11.476;2024-03-08T14:59:53;8.95;66.11
49489;SHT31;35382;51.484;11.476;2024-03-08T15:02:18;9.28;65.69
49489;SHT31;35382;51.484;11.476;2024-03-08T15:04:46;9.25;65.93
49489;SHT31;35382;51.484;11.476;2024-03-08T15:07:11;9.06;65.89
49489;SHT31;35382;51.484;11.476;2024-03-08T15:09:37;8.91;66.64
49489;SHT31;35382;51.484;11.476;2024-03-08T15:12:02;8.89;66.53
49489;SHT31;35382;51.484;11.476;2024-03-08T15:14:28;9.40;66.37
49489;SHT31;35382;51.484;11.476;2024-03-08T15:16:53;9.32;66.10
49489;SHT31;35382;51.484;11.476;2024-03-08T15:19:18;9.35;65.16
49489;SHT31;35382;51.484;11.476;2024-03-08T15:21:46;9.02;66.34
49489;SHT31;35382;51.484;11.476;2024-03-08T15:24:11;8.98;66.56
49489;SHT31;35382;51.484;11.476;2024-03-08T15:26:37;8.75;66.64